Time;durP1;ratioP1;P1;durP2;ratioP2;P2;SDS_P1;SDS_P2;PMS_P1;PMS_P2;Temp;Humidity;BMP_temperature;BMP_pressure;BME280_temperature;BME280_humidity;BME280_pressure;Samples;Min_cycle;Max_cycle;Signal;HPM_P1;HPM_P2
2023/12/02 00:00:04;;;;;;;53.65;30.73;;;-1.40;99.90;;;;;;5095923;28;20050;-88
2023/12/02 00:02:30;;;;;;;52.83;27.95;;;-1.40;99.90;;;;;;5092381;28;20048;-88
2023/12/02 00:04:56;;;;;;;50.23;28.00;;;-0.20;99.90;;;;;;5097163;28;20505;-88
2023/12/02 00:07:22;;;;;;;53.60;28.90;;;-1.30;99.90;;;;;;5097228;28;20047;-88
2023/12/02 00:09:47;;;;;;;47.67;26.83;;;-1.30;99.90;;;;;;5080419;28;20379;-88
2023/12/02 00:12:13;;;;;;;49.13;28.47;;;0.10;99.90;;;;;;5097217;28;20471;-88
2023/12/02 00:14:39;;;;;;;48.58;28.88;;;-1.40;99.90;;;;;;5106995;28;20139;-88
2023/12/02 00:17:05;;;;;;;51.67;28.50;;;-1.40;99.90;;;;;;5074298;28;20468;-88
2023/12/02 00:19:31;;;;;;;50.93;29.03;;;-1.50;99.90;;;;;;5112716;28;20047;-88
2023/12/02 00:21:56;;;;;;;54.63;27.37;;;-0.50;99.90;;;;;;5113494;28;20036;-88
2023/12/02 00:24:22;;;;;;;54.30;28.97;;;-0.30;99.90;;;;;;5097544;28;20044;-89
2023/12/02 00:26:48;;;;;;;53.13;28.60;;;-1.30;99.90;;;;;;5079085;28;20036;-88
2023/12/02 00:29:15;;;;;;;49.67;27.90;;;-0.50;99.90;;;;;;5098245;28;20087;-88
2023/12/02 00:31:40;;;;;;;51.50;29.27;;;-0.70;99.90;;;;;;5092278;28;20502;-88
2023/12/02 00:34:06;;;;;;;49.03;25.57;;;0.00;99.90;;;;;;5077490;28;20055;-88
2023/12/02 00:36:32;;;;;;;45.97;26.87;;;-0.30;99.90;;;;;;5095790;28;20070;-89
2023/12/02 00:38:58;;;;;;;47.97;28.17;;;-1.50;99.90;;;;;;5080266;28;20047;-88
2023/12/02 00:41:24;;;;;;;49.93;29.60;;;-1.50;99.90;;;;;;5112299;28;20434;-88
2023/12/02 00:43:52;;;;;;;47.73;26.20;;;-2.30;99.90;;;;;;5095322;28;20075;-88
2023/12/02 00:46:18;;;;;;;55.60;27.95;;;-0.50;99.90;;;;;;5097044;28;20040;-90
2023/12/02 00:48:44;;;;;;;47.67;27.30;;;-1.50;99.90;;;;;;5062178;28;20051;-88
2023/12/02 00:51:10;;;;;;;45.43;24.90;;;-1.50;99.90;;;;;;5122784;27;20036;-88
2023/12/02 00:53:35;;;;;;;55.47;27.93;;;-0.40;99.90;;;;;;5081286;28;20051;-89
2023/12/02 00:56:01;;;;;;;50.80;29.20;;;-1.60;99.90;;;;;;5114189;28;20057;-88
2023/12/02 00:58:27;;;;;;;53.13;27.90;;;-0.30;99.90;;;;;;5095432;28;20051;-88
2023/12/02 01:00:53;;;;;;;56.23;31.87;;;-1.50;99.90;;;;;;5104262;28;20462;-88
2023/12/02 01:03:18;;;;;;;54.20;27.83;;;-1.50;99.90;;;;;;5095143;28;20043;-88
2023/12/02 01:05:46;;;;;;;40.73;21.97;;;-0.30;99.90;;;;;;5095459;28;20035;-88
2023/12/02 01:08:12;;;;;;;50.63;27.75;;;-1.60;99.90;;;;;;5114245;28;20478;-88
2023/12/02 01:10:38;;;;;;;50.63;27.50;;;-0.10;99.90;;;;;;5109395;28;20051;-88
2023/12/02 01:13:06;;;;;;;44.50;26.23;;;-0.30;99.90;;;;;;5096578;28;20108;-88
2023/12/02 01:15:32;;;;;;;49.67;28.08;;;-1.10;99.90;;;;;;5085880;28;20046;-88
2023/12/02 01:18:00;;;;;;;53.53;28.07;;;-1.40;99.90;;;;;;5127392;27;20130;-88
2023/12/02 01:20:25;;;;;;;46.53;25.75;;;-1.40;99.90;;;;;;5095197;28;20043;-88
2023/12/02 01:22:51;;;;;;;49.30;27.33;;;-0.40;99.90;;;;;;5095721;28;20054;-89
2023/12/02 01:25:17;;;;;;;47.67;27.40;;;0.00;99.90;;;;;;5077156;28;20479;-88
2023/12/02 01:27:42;;;;;;;50.10;27.13;;;-0.80;99.90;;;;;;5079041;28;20342;-88
2023/12/02 01:30:09;;;;;;;55.07;28.57;;;-0.10;99.90;;;;;;5095068;28;20074;-88
2023/12/02 01:32:34;;;;;;;52.00;29.67;;;-1.50;99.90;;;;;;5084579;28;20047;-88
2023/12/02 01:35:03;;;;;;;56.97;29.30;;;-1.40;99.90;;;;;;5110973;28;20046;-88
2023/12/02 01:37:29;;;;;;;47.25;26.92;;;-1.40;99.90;;;;;;5094647;28;20380;-88
2023/12/02 01:39:54;;;;;;;50.20;27.77;;;-0.40;99.90;;;;;;5107699;28;20103;-88
2023/12/02 01:42:20;;;;;;;54.07;28.63;;;-1.50;99.90;;;;;;5079873;28;20406;-88
2023/12/02 01:44:46;;;;;;;52.60;29.73;;;-0.10;99.90;;;;;;5094428;28;20402;-88
2023/12/02 01:47:12;;;;;;;55.27;31.23;;;-1.40;99.90;;;;;;5094382;28;20040;-88
2023/12/02 01:49:39;;;;;;;56.40;28.83;;;-1.40;99.90;;;;;;5112095;28;20039;-88
2023/12/02 01:52:04;;;;;;;;;;;0.00;99.90;;;;;;5078252;28;20050;-88
2023/12/02 01:54:33;;;;;;;51.17;27.05;;;-1.30;99.90;;;;;;5095213;28;19919;-88
2023/12/02 01:56:59;;;;;;;50.08;27.15;;;-1.50;99.90;;;;;;5077035;28;20040;-88
2023/12/02 01:59:25;;;;;;;47.97;26.05;;;-1.40;99.90;;;;;;5095596;28;20052;-88
2023/12/02 02:01:53;;;;;;;48.17;28.13;;;-1.60;99.90;;;;;;5077212;28;20044;-88
2023/12/02 02:04:19;;;;;;;52.70;26.30;;;-1.40;99.90;;;;;;5094660;28;20039;-87
2023/12/02 02:06:45;;;;;;;51.43;28.53;;;-1.30;99.90;;;;;;5094592;28;20043;-88
2023/12/02 02:09:11;;;;;;;51.67;28.50;;;-1.30;99.90;;;;;;5074916;28;20710;-88
2023/12/02 02:11:37;;;;;;;48.23;27.97;;;-0.20;99.90;;;;;;5112745;28;20100;-88
2023/12/02 02:14:03;;;;;;;50.72;28.48;;;-1.00;99.90;;;;;;5094419;28;20143;-88
2023/12/02 02:16:31;;;;;;;49.73;26.73;;;-1.00;99.90;;;;;;5095795;28;20126;-88
2023/12/02 02:19:02;;;;;;;52.60;28.50;;;-1.30;99.90;;;;;;5109954;28;20051;-88
2023/12/02 02:21:27;;;;;;;58.30;30.25;;;-1.30;99.90;;;;;;5095747;28;20563;-88
2023/12/02 02:23:53;;;;;;;52.03;29.47;;;-0.20;99.90;;;;;;5110649;28;20070;-88
2023/12/02 02:26:19;;;;;;;50.27;28.30;;;-0.20;99.90;;;;;;5078607;28;20043;-88
2023/12/02 02:28:45;;;;;;;54.00;30.13;;;-0.20;99.90;;;;;;5075356;28;20044;-87
2023/12/02 02:31:10;;;;;;;54.43;28.07;;;0.10;99.90;;;;;;5093578;28;20474;-88
2023/12/02 02:33:36;;;;;;;52.63;27.80;;;-0.40;99.90;;;;;;5094439;28;20054;-88
2023/12/02 02:36:03;;;;;;;54.08;29.33;;;0.00;99.90;;;;;;5112549;28;20086;-88
2023/12/02 02:38:29;;;;;;;55.90;31.03;;;-1.40;99.90;;;;;;5092456;28;20051;-88
2023/12/02 02:40:54;;;;;;;52.40;29.87;;;-0.10;99.90;;;;;;5111563;28;20289;-88
2023/12/02 02:43:20;;;;;;;52.33;28.33;;;-0.10;99.90;;;;;;5077728;28;20047;-87
2023/12/02 02:45:55;;;;;;;49.67;27.87;;;0.00;99.90;;;;;;5094768;28;20039;-88
2023/12/02 02:48:21;;;;;;;49.45;30.58;;;-0.50;99.90;;;;;;5078284;28;20134;-88
2023/12/02 02:50:47;;;;;;;51.55;31.50;;;-0.20;99.90;;;;;;5093300;28;20104;-88
2023/12/02 02:53:15;;;;;;;54.03;28.73;;;-0.10;99.90;;;;;;5110635;28;20047;-88
2023/12/02 02:55:41;;;;;;;54.53;28.50;;;-1.30;99.90;;;;;;5077848;28;20043;-87
2023/12/02 02:58:06;;;;;;;53.13;28.30;;;-1.00;99.90;;;;;;5110335;28;20510;-88
2023/12/02 03:00:35;;;;;;;50.03;27.93;;;-0.80;99.90;;;;;;5075742;28;20441;-88
2023/12/02 03:03:00;;;;;;;50.95;28.38;;;-0.30;99.90;;;;;;5055564;28;20039;-87
2023/12/02 03:05:26;;;;;;;50.70;29.17;;;-1.40;99.90;;;;;;5083750;28;20040;-88
2023/12/02 03:07:54;;;;;;;46.40;26.30;;;-1.60;99.90;;;;;;5091931;28;20039;-87
2023/12/02 03:10:21;;;;;;;50.50;27.88;;;-0.40;99.90;;;;;;5099035;28;20043;-87
2023/12/02 03:12:47;;;;;;;51.22;29.98;;;-1.30;99.90;;;;;;5094118;28;20509;-87
2023/12/02 03:15:12;;;;;;;52.07;30.07;;;-0.30;99.90;;;;;;5077667;28;20067;-87
2023/12/02 03:17:38;;;;;;;54.00;29.07;;;-1.30;99.90;;;;;;5107053;28;20043;-88
2023/12/02 03:20:06;;;;;;;47.90;30.67;;;-0.40;99.90;;;;;;5111054;28;20039;-87
2023/12/02 03:22:32;;;;;;;46.65;27.50;;;-1.40;99.90;;;;;;5087669;28;20069;-88
2023/12/02 03:24:57;;;;;;;50.63;27.67;;;-2.30;99.90;;;;;;5111267;28;20078;-87
2023/12/02 03:27:23;;;;;;;50.37;27.77;;;-0.50;99.90;;;;;;5076935;28;20422;-87
2023/12/02 03:29:51;;;;;;;48.83;27.73;;;-1.30;99.90;;;;;;5111276;28;20043;-87
2023/12/02 03:32:19;;;;;;;45.47;27.75;;;-1.40;99.90;;;;;;5109709;28;20267;-87
2023/12/02 03:34:45;;;;;;;47.45;27.15;;;-1.30;99.90;;;;;;5092105;28;20475;-87
2023/12/02 03:37:11;;;;;;;47.50;27.00;;;-0.80;99.90;;;;;;5110539;28;20050;-87
2023/12/02 03:39:37;;;;;;;47.90;26.60;;;-2.60;99.90;;;;;;5110525;28;20050;-87
2023/12/02 03:42:04;;;;;;;50.10;25.52;;;-0.20;99.90;;;;;;5092924;28;20047;-87
2023/12/02 03:44:29;;;;;;;53.08;28.05;;;-1.40;99.90;;;;;;5077514;28;20052;-87
2023/12/02 03:46:55;;;;;;;50.80;27.93;;;-0.10;99.90;;;;;;5084405;28;20032;-87
2023/12/02 03:49:21;;;;;;;54.97;29.60;;;-1.30;99.90;;;;;;5105153;28;20071;-87
2023/12/02 03:51:47;;;;;;;49.20;27.07;;;-1.30;99.90;;;;;;5076649;28;20047;-87
2023/12/02 03:54:12;;;;;;;47.17;25.27;;;-1.40;99.90;;;;;;5075073;28;20063;-87
2023/12/02 03:56:39;;;;;;;45.93;25.73;;;-1.20;99.90;;;;;;5110678;28;20043;-87
2023/12/02 03:59:05;;;;;;;44.35;25.77;;;-1.40;99.90;;;;;;5092361;28;20423;-87
2023/12/02 04:01:31;;;;;;;49.47;25.90;;;-1.20;99.90;;;;;;5094158;28;20503;-87
2023/12/02 04:04:00;;;;;;;43.10;25.27;;;-1.40;99.90;;;;;;5126508;28;20122;-87
2023/12/02 04:06:26;;;;;;;48.28;24.90;;;-0.50;99.90;;;;;;5093515;28;20095;-87
2023/12/02 04:08:51;;;;;;;49.47;28.67;;;-1.80;99.90;;;;;;5093271;28;20126;-87
2023/12/02 04:11:17;;;;;;;49.33;27.03;;;0.00;99.90;;;;;;5107972;28;20065;-87
2023/12/02 04:13:43;;;;;;;46.30;25.03;;;-1.50;99.90;;;;;;5076899;28;20044;-87
2023/12/02 04:16:11;;;;;;;45.55;25.65;;;-0.10;99.90;;;;;;5096763;28;20162;-87
2023/12/02 04:18:37;;;;;;;43.50;24.67;;;-0.10;99.90;;;;;;5096542;28;20183;-87
2023/12/02 04:21:09;;;;;;;48.22;26.83;;;-1.40;99.90;;;;;;5081092;28;20135;-87
2023/12/02 04:23:38;;;;;;;44.67;26.00;;;-1.00;99.90;;;;;;5062697;28;20487;-87
2023/12/02 04:26:04;;;;;;;45.63;25.80;;;-0.20;99.90;;;;;;5071043;28;20502;-87
2023/12/02 04:28:29;;;;;;;46.60;26.35;;;-1.40;99.90;;;;;;5079876;28;20055;-87
2023/12/02 04:30:55;;;;;;;50.20;27.53;;;-0.40;99.90;;;;;;5107827;28;20529;-87
2023/12/02 04:33:21;;;;;;;50.63;26.27;;;-0.20;99.90;;;;;;5093714;28;20512;-87
2023/12/02 04:35:47;;;;;;;46.50;26.53;;;-0.20;99.90;;;;;;5083695;28;20062;-89
2023/12/02 04:38:12;;;;;;;46.67;29.17;;;-1.40;99.90;;;;;;5096651;28;20071;-86
2023/12/02 04:40:38;;;;;;;53.80;27.63;;;-0.30;99.90;;;;;;5080438;28;20051;-88
2023/12/02 04:43:04;;;;;;;45.80;25.60;;;-1.40;99.90;;;;;;5095093;28;20039;-88
2023/12/02 04:45:30;;;;;;;46.70;27.10;;;-1.50;99.90;;;;;;5097439;28;20115;-87
2023/12/02 04:47:56;;;;;;;51.13;27.40;;;-0.10;99.90;;;;;;5113146;28;20403;-88
2023/12/02 04:50:22;;;;;;;52.40;26.00;;;-1.40;99.90;;;;;;5103638;28;20051;-87
2023/12/02 04:52:48;;;;;;;45.57;25.50;;;0.00;99.90;;;;;;5112475;28;20092;-87
2023/12/02 04:55:14;;;;;;;44.55;25.85;;;-1.30;99.90;;;;;;5097284;28;20411;-87
2023/12/02 04:57:41;;;;;;;44.80;25.85;;;-1.40;99.90;;;;;;5078921;28;20047;-88
2023/12/02 05:00:13;;;;;;;46.38;26.58;;;-0.60;99.90;;;;;;5078192;28;20051;-87
2023/12/02 05:02:43;;;;;;;47.75;26.98;;;-1.20;99.90;;;;;;5074480;28;20048;-87
2023/12/02 05:05:10;;;;;;;45.08;25.02;;;0.00;99.90;;;;;;5075799;28;20095;-87
2023/12/02 05:07:36;;;;;;;45.25;25.08;;;-0.10;99.90;;;;;;5114306;28;20040;-86
2023/12/02 05:10:04;;;;;;;;;;;-0.60;99.90;;;;;;5111496;28;20135;-87
2023/12/02 05:12:30;;;;;;;46.03;26.58;;;-1.30;99.90;;;;;;5084285;28;19927;-87
2023/12/02 05:14:56;;;;;;;44.17;24.98;;;-1.30;99.90;;;;;;5110076;28;20104;-87
2023/12/02 05:17:22;;;;;;;50.30;26.10;;;0.00;99.90;;;;;;5064672;28;20044;-86
2023/12/02 05:19:48;;;;;;;45.40;25.07;;;-1.40;99.90;;;;;;5093000;28;20046;-86
2023/12/02 05:22:16;;;;;;;46.13;25.50;;;-0.30;99.90;;;;;;5083422;28;20031;-87
2023/12/02 05:24:42;;;;;;;41.03;23.52;;;-2.40;99.90;;;;;;5095559;28;20387;-86
2023/12/02 05:27:09;;;;;;;48.80;26.53;;;-0.30;99.90;;;;;;5095007;28;20042;-87
2023/12/02 05:29:35;;;;;;;48.97;25.63;;;-0.90;99.90;;;;;;5047235;28;20399;-86
2023/12/02 05:32:01;;;;;;;51.30;28.13;;;-1.40;99.90;;;;;;5094788;28;20047;-87
2023/12/02 05:34:26;;;;;;;42.90;25.27;;;-0.10;99.90;;;;;;5077705;28;20740;-87
2023/12/02 05:36:52;;;;;;;45.90;25.47;;;-0.20;99.90;;;;;;5096149;28;20043;-87
2023/12/02 05:39:18;;;;;;;45.20;25.27;;;-2.60;99.90;;;;;;5110543;28;20165;-86
2023/12/02 05:41:44;;;;;;;48.97;26.70;;;-0.20;99.90;;;;;;5096306;28;20043;-86
2023/12/02 05:44:10;;;;;;;50.23;25.40;;;-1.30;99.90;;;;;;5111363;28;20078;-87
2023/12/02 05:46:39;;;;;;;49.43;27.23;;;-0.20;99.90;;;;;;5106612;28;20075;-86
2023/12/02 05:49:04;;;;;;;44.42;25.75;;;-0.10;99.90;;;;;;5113147;28;20036;-86
2023/12/02 05:51:30;;;;;;;48.37;26.37;;;-0.30;99.90;;;;;;5086531;28;20118;-86
2023/12/02 05:53:56;;;;;;;47.80;27.20;;;-1.40;99.90;;;;;;5095524;28;20044;-86
2023/12/02 05:56:22;;;;;;;47.30;26.23;;;-0.30;99.90;;;;;;5055911;28;20040;-86
2023/12/02 05:58:48;;;;;;;45.70;26.67;;;0.10;99.90;;;;;;5095347;28;20051;-86
2023/12/02 06:01:22;;;;;;;46.30;25.17;;;-0.90;99.90;;;;;;5108984;28;20123;-86
2023/12/02 06:03:52;;;;;;;48.10;25.05;;;0.00;99.90;;;;;;5088743;28;20038;-86
2023/12/02 06:06:19;;;;;;;54.08;27.75;;;0.00;99.90;;;;;;5094077;28;21023;-86
2023/12/02 06:08:45;;;;;;;52.80;28.00;;;-0.20;99.90;;;;;;5075777;28;20043;-87
2023/12/02 06:11:10;;;;;;;50.67;26.60;;;-1.40;99.90;;;;;;5112361;28;20108;-86
2023/12/02 06:13:36;;;;;;;48.40;27.90;;;-1.40;99.90;;;;;;5078125;28;20058;-86
2023/12/02 06:16:02;;;;;;;54.07;25.77;;;-2.50;99.90;;;;;;5086493;28;20505;-87
2023/12/02 06:18:28;;;;;;;47.70;25.60;;;-1.50;99.90;;;;;;5086868;28;20048;-88
2023/12/02 06:20:53;;;;;;;52.57;27.30;;;-1.90;99.90;;;;;;5110853;28;20501;-86
2023/12/02 06:23:19;;;;;;;45.97;25.20;;;-1.00;99.90;;;;;;5088906;28;20036;-87
2023/12/02 06:25:45;;;;;;;46.53;26.27;;;-0.50;99.90;;;;;;5057609;28;20499;-86
2023/12/02 06:28:13;;;;;;;47.73;27.13;;;-1.20;99.90;;;;;;5082596;28;20406;-85
2023/12/02 06:30:39;;;;;;;50.33;27.50;;;-0.50;99.90;;;;;;5078496;28;20049;-86
2023/12/02 06:33:05;;;;;;;47.40;28.07;;;-1.00;99.90;;;;;;5078010;28;20075;-86
2023/12/02 06:35:30;;;;;;;52.73;28.37;;;-1.60;99.90;;;;;;5061880;28;20074;-86
2023/12/02 06:37:56;;;;;;;48.73;26.10;;;-1.20;99.90;;;;;;5076797;28;20036;-86
2023/12/02 06:40:22;;;;;;;46.73;26.07;;;-0.70;99.90;;;;;;5074314;28;20048;-86
2023/12/02 06:42:47;;;;;;;50.47;26.90;;;-0.70;99.90;;;;;;5061952;28;20047;-86
2023/12/02 06:45:13;;;;;;;51.90;30.60;;;-1.60;99.90;;;;;;5093787;28;20039;-86
2023/12/02 06:47:39;;;;;;;51.27;26.10;;;-1.60;99.90;;;;;;5078479;28;20079;-86
2023/12/02 06:50:05;;;;;;;52.27;25.90;;;-1.60;99.90;;;;;;5109531;28;20047;-86
2023/12/02 06:52:31;;;;;;;52.03;26.95;;;-1.60;99.90;;;;;;5111549;28;20059;-86
2023/12/02 06:54:58;;;;;;;55.17;27.97;;;-1.20;99.90;;;;;;5093665;28;20108;-87
2023/12/02 06:57:23;;;;;;;55.28;29.42;;;-1.60;99.90;;;;;;5095226;28;20040;-86
2023/12/02 06:59:51;;;;;;;49.43;26.47;;;-1.30;99.90;;;;;;5092047;28;20100;-86
2023/12/02 07:02:17;;;;;;;55.83;27.08;;;-1.60;99.90;;;;;;5094312;28;20043;-86
2023/12/02 07:04:42;;;;;;;56.07;27.67;;;-1.60;99.90;;;;;;5101368;28;20048;-86
2023/12/02 07:07:08;;;;;;;54.93;27.50;;;-1.30;99.90;;;;;;5093422;28;20475;-86
2023/12/02 07:09:34;;;;;;;52.53;27.93;;;-0.30;99.90;;;;;;5077501;28;20039;-86
2023/12/02 07:11:59;;;;;;;52.20;30.17;;;-1.60;99.90;;;;;;5093757;28;20043;-86
2023/12/02 07:14:25;;;;;;;54.73;29.40;;;-1.60;99.90;;;;;;5093225;28;20123;-86
2023/12/02 07:16:51;;;;;;;55.47;27.27;;;-0.20;99.90;;;;;;5110465;28;20043;-86
2023/12/02 07:19:17;;;;;;;48.67;27.53;;;-1.60;99.90;;;;;;5097314;28;20052;-86
2023/12/02 07:21:42;;;;;;;51.63;28.27;;;-1.60;99.90;;;;;;5109115;28;20108;-86
2023/12/02 07:24:09;;;;;;;54.97;28.20;;;-2.90;99.90;;;;;;5076849;28;20047;-86
2023/12/02 07:26:35;;;;;;;57.80;29.50;;;-0.50;99.90;;;;;;5110090;28;20124;-86
2023/12/02 07:29:01;;;;;;;55.92;29.00;;;-0.90;99.90;;;;;;5112257;28;20097;-86
2023/12/02 07:31:27;;;;;;;50.23;28.33;;;-0.40;99.90;;;;;;5091642;28;20055;-88
2023/12/02 07:33:53;;;;;;;54.33;28.60;;;-0.30;99.90;;;;;;5091815;28;20555;-86
2023/12/02 07:36:19;;;;;;;55.70;25.53;;;-0.40;99.90;;;;;;5076625;28;20032;-87
2023/12/02 07:38:44;;;;;;;56.50;27.63;;;-1.00;99.90;;;;;;5095109;28;20039;-86
2023/12/02 07:41:10;;;;;;;54.83;28.20;;;-0.50;99.90;;;;;;5074145;28;20036;-89
2023/12/02 07:43:39;;;;;;;52.88;26.75;;;-0.40;99.90;;;;;;5093166;28;20047;-85
2023/12/02 07:46:05;;;;;;;59.08;28.67;;;-0.30;99.90;;;;;;5093530;28;20093;-87
2023/12/02 07:48:31;;;;;;;57.33;28.15;;;-0.70;99.90;;;;;;5072416;28;20048;-88
2023/12/02 07:50:59;;;;;;;51.93;27.97;;;-1.60;99.90;;;;;;5113637;28;20130;-88
2023/12/02 07:53:24;;;;;;;55.63;28.98;;;-0.80;99.90;;;;;;5114595;28;20039;-88
2023/12/02 07:55:52;;;;;;;56.67;29.10;;;-1.60;99.90;;;;;;5114754;27;20050;-87
2023/12/02 07:58:18;;;;;;;52.42;26.95;;;-0.10;99.90;;;;;;5097402;28;20499;-87
2023/12/02 08:00:44;;;;;;;56.97;28.30;;;-0.30;99.90;;;;;;5115108;27;20048;-86
2023/12/02 08:03:09;;;;;;;51.60;27.27;;;-1.50;99.90;;;;;;5081729;28;20047;-84
2023/12/02 08:05:35;;;;;;;52.30;26.73;;;-1.60;99.90;;;;;;5080750;28;20051;-85
2023/12/02 08:08:01;;;;;;;58.33;29.70;;;-0.10;99.90;;;;;;5114344;28;20048;-84
2023/12/02 08:10:26;;;;;;;56.03;29.30;;;-1.50;99.90;;;;;;5097369;28;20044;-85
2023/12/02 08:12:52;;;;;;;50.03;28.20;;;-0.70;99.90;;;;;;5062368;28;20043;-86
2023/12/02 08:15:18;;;;;;;56.37;26.77;;;-1.50;99.90;;;;;;5097150;28;20042;-86
2023/12/02 08:17:43;;;;;;;60.13;29.40;;;-1.50;99.90;;;;;;5069908;28;20040;-85
2023/12/02 08:20:09;;;;;;;55.60;28.03;;;-0.60;99.90;;;;;;5092851;28;20048;-86
2023/12/02 08:22:38;;;;;;;59.07;29.97;;;-1.50;99.90;;;;;;5104979;28;20084;-86
2023/12/02 08:25:04;;;;;;;55.72;30.50;;;-1.50;99.90;;;;;;5081242;28;20105;-88
2023/12/02 08:27:29;;;;;;;52.40;28.13;;;-1.40;99.90;;;;;;5067654;28;20040;-86
2023/12/02 08:29:55;;;;;;;57.27;28.63;;;-0.20;99.90;;;;;;5100330;28;20047;-86
2023/12/02 08:32:21;;;;;;;51.60;25.93;;;-1.30;99.90;;;;;;5074175;28;20054;-86
2023/12/02 08:34:46;;;;;;;54.63;28.67;;;-1.40;99.90;;;;;;5088969;28;20059;-85
2023/12/02 08:37:13;;;;;;;52.97;27.57;;;-0.60;99.90;;;;;;5096223;28;20044;-86
2023/12/02 08:39:39;;;;;;;55.45;29.08;;;-0.60;99.90;;;;;;5080249;28;20686;-85
2023/12/02 08:42:05;;;;;;;56.97;29.83;;;-0.40;99.90;;;;;;5103587;28;20040;-86
2023/12/02 08:44:30;;;;;;;53.43;29.57;;;-1.40;99.90;;;;;;5094493;28;20055;-85
2023/12/02 08:46:58;;;;;;;54.80;28.00;;;-0.40;99.90;;;;;;5055589;28;20297;-85
2023/12/02 08:49:24;;;;;;;60.33;31.88;;;-1.30;99.90;;;;;;5086476;28;20051;-85
2023/12/02 08:51:50;;;;;;;58.50;30.60;;;0.10;99.90;;;;;;5067400;28;20454;-84
2023/12/02 08:54:15;;;;;;;61.30;30.23;;;0.20;99.90;;;;;;5089963;28;20036;-85
2023/12/02 08:56:41;;;;;;;57.73;29.97;;;-1.20;99.90;;;;;;5094755;28;20070;-86
2023/12/02 08:59:07;;;;;;;58.87;31.20;;;-0.70;99.90;;;;;;5092926;28;20188;-86
2023/12/02 09:01:33;;;;;;;57.37;27.33;;;-0.10;99.90;;;;;;5101080;28;20040;-85
2023/12/02 09:03:59;;;;;;;59.90;30.50;;;0.20;99.90;;;;;;5099482;28;20036;-84
2023/12/02 09:06:24;;;;;;;59.73;32.03;;;-0.10;99.90;;;;;;5100244;27;20054;-85
2023/12/02 09:08:54;;;;;;;57.27;30.70;;;0.00;99.90;;;;;;5098916;28;20107;-86
2023/12/02 09:11:20;;;;;;;57.60;29.67;;;0.20;99.90;;;;;;5097082;28;20056;-89
2023/12/02 09:13:46;;;;;;;59.83;30.03;;;0.30;99.90;;;;;;5070335;28;20070;-88
2023/12/02 09:16:21;;;;;;;60.08;31.33;;;-1.00;99.90;;;;;;5104941;28;20039;-88
2023/12/02 09:18:47;;;;;;;59.53;29.02;;;-0.90;99.90;;;;;;5084680;28;20547;-87
2023/12/02 09:21:40;;;;;;;61.17;30.83;;;-0.40;99.90;;;;;;5097574;28;20525;-88
2023/12/02 09:24:36;;;;;;;56.00;30.38;;;-0.90;99.90;;;;;;5098667;28;20050;-88
2023/12/02 09:27:05;;;;;;;54.15;28.58;;;-0.80;99.90;;;;;;5095727;28;20406;-88
2023/12/02 09:29:40;;;;;;;59.25;29.00;;;-0.80;99.90;;;;;;5094510;28;20051;-88
2023/12/02 09:32:50;;;;;;;56.80;28.70;;;-0.60;99.90;;;;;;5078712;28;20058;-88
2023/12/02 09:35:15;;;;;;;;;;;-0.70;99.90;;;;;;5096579;28;20055;-87
2023/12/02 09:37:57;;;;;;;56.85;27.02;;;0.80;99.90;;;;;;5112715;28;20022;-87
2023/12/02 09:40:25;;;;;;;57.97;33.03;;;-0.60;99.90;;;;;;5094730;28;20053;-87
2023/12/02 09:42:55;;;;;;;54.92;30.65;;;-0.60;99.90;;;;;;5093299;28;20055;-88
2023/12/02 09:45:36;;;;;;;58.65;29.50;;;-0.60;99.90;;;;;;5096106;28;20040;-88
2023/12/02 09:48:19;;;;;;;56.88;29.63;;;-0.60;99.90;;;;;;5112901;28;20048;-87
2023/12/02 09:51:09;;;;;;;59.17;29.88;;;-0.30;99.90;;;;;;5111000;28;20047;-87
2023/12/02 09:53:47;;;;;;;56.88;29.52;;;-0.40;99.90;;;;;;5106100;28;20043;-87
2023/12/02 09:56:19;;;;;;;58.72;29.13;;;-0.40;99.90;;;;;;5076293;28;20391;-87
2023/12/02 09:58:47;;;;;;;53.75;29.30;;;-0.40;99.90;;;;;;5100600;28;20397;-87
2023/12/02 10:01:37;;;;;;;57.65;29.27;;;-0.30;99.90;;;;;;5093731;28;20478;-87
2023/12/02 10:04:27;;;;;;;54.03;28.77;;;0.10;99.90;;;;;;5111986;28;20096;-87
2023/12/02 10:07:13;;;;;;;55.03;29.83;;;-0.20;99.90;;;;;;5095872;28;20107;-87
2023/12/02 10:09:53;;;;;;;57.20;28.27;;;-0.10;99.90;;;;;;5087638;28;20067;-87
2023/12/02 10:12:25;;;;;;;54.13;28.27;;;-0.10;99.90;;;;;;5110896;28;20541;-86
2023/12/02 10:15:05;;;;;;;59.25;30.10;;;0.10;99.90;;;;;;5095254;28;20668;-84
2023/12/02 10:17:58;;;;;;;57.30;30.35;;;0.20;99.90;;;;;;5109394;28;20084;-87
2023/12/02 10:20:28;;;;;;;59.72;30.25;;;0.30;99.90;;;;;;5081897;28;20052;-86
2023/12/02 10:23:07;;;;;;;57.40;30.98;;;0.60;99.90;;;;;;5092834;28;20043;-84
2023/12/02 10:25:54;;;;;;;55.15;28.15;;;0.80;99.90;;;;;;5115073;28;20127;-85
2023/12/02 10:28:38;;;;;;;53.67;29.70;;;0.80;99.90;;;;;;5096728;28;20058;-87
2023/12/02 10:31:06;;;;;;;55.78;28.02;;;0.90;99.90;;;;;;5101800;28;20036;-86
2023/12/02 10:33:52;;;;;;;55.33;29.23;;;1.00;99.90;;;;;;5107546;28;20055;-87
2023/12/02 10:36:20;;;;;;;51.53;28.42;;;1.30;99.90;;;;;;5093761;28;20043;-85
2023/12/02 10:39:02;;;;;;;54.22;28.90;;;1.90;99.90;;;;;;5110801;27;20623;-86
2023/12/02 10:41:40;;;;;;;50.33;29.05;;;1.60;99.90;;;;;;5112133;28;20089;-86
2023/12/02 10:44:10;;;;;;;53.35;26.25;;;1.60;99.90;;;;;;5089830;28;20517;-86
2023/12/02 10:46:39;;;;;;;53.47;29.10;;;1.70;99.90;;;;;;5107649;28;20039;-86
2023/12/02 10:49:05;;;;;;;47.80;26.27;;;1.70;99.90;;;;;;5108583;28;20040;-86
2023/12/02 10:51:39;;;;;;;45.00;26.45;;;1.70;99.90;;;;;;5108714;28;20046;-86
2023/12/02 10:54:05;;;;;;;47.85;25.65;;;1.90;99.90;;;;;;5109897;28;20096;-86
2023/12/02 10:56:35;;;;;;;48.42;26.45;;;1.80;99.90;;;;;;5108387;28;20050;-86
2023/12/02 10:59:02;;;;;;;45.83;24.35;;;2.50;99.90;;;;;;5092623;28;20048;-87
2023/12/02 11:01:53;;;;;;;43.53;24.85;;;1.80;99.90;;;;;;5111271;28;20115;-83
2023/12/02 11:04:40;;;;;;;44.33;25.95;;;1.90;99.90;;;;;;5110215;28;20032;-84
2023/12/02 11:07:09;;;;;;;44.45;24.85;;;3.00;99.90;;;;;;5109256;28;20392;-85
2023/12/02 11:10:03;;;;;;;44.55;24.83;;;1.90;99.90;;;;;;5108982;28;20084;-86
2023/12/02 11:12:59;;;;;;;47.28;27.92;;;1.80;99.90;;;;;;5110529;28;20108;-84
2023/12/02 11:15:28;;;;;;;47.20;27.27;;;2.00;99.90;;;;;;5106162;28;20159;-84
2023/12/02 11:18:04;;;;;;;46.83;26.23;;;2.50;99.90;;;;;;5110613;28;20043;-84
2023/12/02 11:20:52;;;;;;;46.70;26.10;;;3.10;99.90;;;;;;5090925;28;20043;-83
2023/12/02 11:23:33;;;;;;;43.85;25.50;;;3.60;99.90;;;;;;5108097;28;20043;-83
2023/12/02 11:25:59;;;;;;;47.65;26.63;;;4.10;99.90;;;;;;5093992;28;20043;-83
2023/12/02 11:28:40;;;;;;;37.93;21.60;;;4.50;99.90;;;;;;5113904;28;20134;-85
2023/12/02 11:31:15;;;;;;;37.75;21.48;;;4.70;99.90;;;;;;5097423;28;20060;-84
2023/12/02 11:34:08;;;;;;;36.70;21.63;;;4.60;99.90;;;;;;5113277;28;20039;-84
2023/12/02 11:36:44;;;;;;;36.03;21.08;;;4.20;99.90;;;;;;5112786;28;20043;-84
2023/12/02 11:39:29;;;;;;;37.97;22.02;;;3.90;99.90;;;;;;5096976;28;20083;-85
2023/12/02 11:41:56;;;;;;;32.80;21.55;;;3.70;99.90;;;;;;5095767;28;20126;-84
2023/12/02 11:44:43;;;;;;;29.33;19.38;;;3.50;99.90;;;;;;5113980;28;20086;-85
2023/12/02 11:47:27;;;;;;;32.88;19.67;;;3.30;99.90;;;;;;5095540;28;20481;-84
2023/12/02 11:50:11;;;;;;;34.60;20.38;;;3.10;99.90;;;;;;5114577;28;20040;-84
2023/12/02 11:53:20;;;;;;;37.13;22.15;;;2.90;99.90;;;;;;5113244;28;20054;-84
2023/12/02 11:56:17;;;;;;;31.98;19.30;;;2.80;99.90;;;;;;5095994;28;20043;-83
2023/12/02 11:58:55;;;;;;;35.90;20.83;;;2.60;99.90;;;;;;5117328;28;20043;-85
2023/12/02 12:01:47;;;;;;;29.67;18.35;;;2.50;99.90;;;;;;5117422;28;20051;-84
2023/12/02 12:04:33;;;;;;;35.40;19.38;;;2.40;99.90;;;;;;5094884;28;20047;-83
2023/12/02 12:07:19;;;;;;;35.25;20.48;;;2.30;99.90;;;;;;5111821;28;20032;-84
2023/12/02 12:09:54;;;;;;;35.97;20.02;;;3.20;99.90;;;;;;5114885;28;20050;-84
2023/12/02 12:12:21;;;;;;;38.67;21.90;;;2.10;99.90;;;;;;5113651;28;20090;-83
2023/12/02 12:14:48;;;;;;;32.72;20.63;;;3.00;99.90;;;;;;5112523;28;20051;-84
2023/12/02 12:17:14;;;;;;;34.53;20.58;;;2.40;99.90;;;;;;5113977;28;20046;-85
2023/12/02 12:19:40;;;;;;;38.60;21.83;;;1.90;99.90;;;;;;5114656;28;20043;-84
2023/12/02 12:22:06;;;;;;;40.58;23.75;;;2.00;99.90;;;;;;5096744;28;20087;-84
2023/12/02 12:24:32;;;;;;;36.87;21.23;;;1.90;99.90;;;;;;5110416;28;20125;-86
2023/12/02 12:26:57;;;;;;;36.33;21.87;;;1.80;99.90;;;;;;5096902;28;20482;-86
2023/12/02 12:29:23;;;;;;;41.03;22.40;;;3.10;99.90;;;;;;5096291;28;20035;-83
2023/12/02 12:31:49;;;;;;;37.37;21.17;;;1.80;99.90;;;;;;5092675;28;20043;-84
2023/12/02 12:34:14;;;;;;;39.73;21.67;;;1.90;99.90;;;;;;5093796;28;20047;-85
2023/12/02 12:36:41;;;;;;;38.00;21.50;;;2.30;99.90;;;;;;5111037;28;20043;-84
2023/12/02 12:39:07;;;;;;;36.55;21.15;;;2.20;99.90;;;;;;5078146;28;20051;-84